Time;durP1;ratioP1;P1;durP2;ratioP2;P2;SDS_P1;SDS_P2;PMS_P1;PMS_P2;Temp;Humidity;BMP_temperature;BMP_pressure;BME280_temperature;BME280_humidity;BME280_pressure;Samples;Min_cycle;Max_cycle;Signal;HPM_P1;HPM_P2
2023/03/08 00:01:26;;;;;;;9.33;8.73;;;1.40;99.90;;;;;;5022853;28;20184;-65
2023/03/08 00:03:55;;;;;;;8.77;8.07;;;1.40;99.90;;;;;;5008944;28;20562;-66
2023/03/08 00:06:21;;;;;;;8.93;8.13;;;1.50;99.90;;;;;;5029628;28;20186;-66
2023/03/08 00:08:48;;;;;;;11.73;9.00;;;1.50;99.90;;;;;;5030165;28;20218;-66
2023/03/08 00:11:14;;;;;;;7.87;7.47;;;1.50;99.90;;;;;;5011860;28;20613;-66
2023/03/08 00:13:40;;;;;;;7.77;7.27;;;1.50;99.90;;;;;;5012228;28;20267;-66
2023/03/08 00:16:09;;;;;;;7.93;7.33;;;1.50;99.90;;;;;;5030221;28;20744;-65
2023/03/08 00:18:35;;;;;;;8.37;7.80;;;1.50;99.90;;;;;;5028729;28;20218;-65
2023/03/08 00:21:13;;;;;;;11.03;7.90;;;1.50;99.90;;;;;;5010169;28;20259;-66
2023/03/08 00:23:39;;;;;;;8.00;7.50;;;1.50;99.90;;;;;;5010771;28;20187;-66
2023/03/08 00:26:05;;;;;;;8.57;8.13;;;1.50;99.90;;;;;;5029861;28;20171;-66
2023/03/08 00:28:31;;;;;;;8.77;7.97;;;1.50;99.90;;;;;;5029910;28;20537;-66
2023/03/08 00:30:59;;;;;;;8.80;8.27;;;1.50;99.90;;;;;;5009014;28;20701;-66
2023/03/08 00:33:25;;;;;;;8.63;7.93;;;1.50;99.90;;;;;;5009898;28;20549;-66
2023/03/08 00:36:03;;;;;;;8.43;7.90;;;1.50;99.90;;;;;;5027514;28;20222;-65
2023/03/08 00:38:30;;;;;;;8.37;7.87;;;1.50;99.90;;;;;;5029210;28;20210;-65
2023/03/08 00:40:56;;;;;;;8.60;7.80;;;1.50;99.90;;;;;;5011091;28;20199;-66
2023/03/08 00:43:22;;;;;;;7.70;7.30;;;1.50;99.90;;;;;;5009421;28;20180;-66
2023/03/08 00:45:47;;;;;;;7.87;7.27;;;1.50;99.90;;;;;;5025592;28;20268;-66
2023/03/08 00:48:13;;;;;;;7.67;7.27;;;1.50;99.90;;;;;;5029182;28;20546;-66
2023/03/08 00:50:39;;;;;;;7.83;7.43;;;1.50;99.90;;;;;;5013968;28;20279;-66
2023/03/08 00:53:05;;;;;;;8.53;8.03;;;1.50;99.90;;;;;;5009340;28;20749;-66
2023/03/08 00:55:31;;;;;;;8.20;7.80;;;1.50;99.90;;;;;;5022138;28;20579;-66
2023/03/08 00:57:56;;;;;;;8.30;7.87;;;1.50;99.90;;;;;;5029199;28;20233;-66
2023/03/08 01:00:23;;;;;;;8.47;7.87;;;1.50;99.90;;;;;;5017209;28;20188;-66
2023/03/08 01:02:48;;;;;;;8.23;7.83;;;1.60;99.90;;;;;;5009486;28;20391;-66
2023/03/08 01:05:14;;;;;;;8.27;7.77;;;1.60;99.90;;;;;;5018575;28;20221;-66
2023/03/08 01:07:40;;;;;;;8.27;7.57;;;1.70;99.90;;;;;;5029211;28;20561;-66
2023/03/08 01:10:05;;;;;;;8.53;7.97;;;1.70;99.90;;;;;;5020588;28;20636;-66
2023/03/08 01:12:32;;;;;;;8.23;7.70;;;1.70;99.90;;;;;;5009033;28;20176;-66
2023/03/08 01:14:58;;;;;;;8.60;8.00;;;1.70;99.90;;;;;;5015203;28;20191;-65
2023/03/08 01:17:23;;;;;;;8.23;7.63;;;1.70;99.90;;;;;;5028903;28;20183;-67
2023/03/08 01:19:49;;;;;;;8.23;7.67;;;1.70;99.90;;;;;;5024178;28;20210;-66
2023/03/08 01:22:15;;;;;;;8.03;7.53;;;1.70;99.90;;;;;;5009175;28;20190;-66
2023/03/08 01:24:45;;;;;;;10.73;7.90;;;1.70;99.90;;;;;;5007362;28;20208;-66
2023/03/08 01:27:10;;;;;;;9.27;8.00;;;1.70;99.90;;;;;;5009029;28;20175;-66
2023/03/08 01:29:36;;;;;;;7.10;6.70;;;1.70;99.90;;;;;;5009930;28;20254;-66
2023/03/08 01:32:02;;;;;;;8.33;7.73;;;1.70;99.90;;;;;;5028840;28;20179;-66
2023/03/08 01:34:28;;;;;;;8.83;8.33;;;1.70;99.90;;;;;;5028204;28;20206;-66
2023/03/08 01:36:53;;;;;;;8.73;8.17;;;1.70;99.90;;;;;;5008989;28;20250;-66
2023/03/08 01:39:19;;;;;;;7.60;7.07;;;1.70;99.90;;;;;;5008320;28;20203;-66
2023/03/08 01:41:44;;;;;;;7.43;7.13;;;1.70;99.90;;;;;;5020067;28;20195;-66
2023/03/08 01:44:19;;;;;;;8.17;7.67;;;1.70;99.90;;;;;;5008856;28;20203;-66
2023/03/08 01:46:45;;;;;;;8.10;7.40;;;1.70;99.90;;;;;;5008766;28;20176;-66
2023/03/08 01:49:27;;;;;;;8.13;7.50;;;1.70;99.90;;;;;;5008770;28;20632;-66
2023/03/08 01:52:13;;;;;;;8.03;7.53;;;1.70;99.90;;;;;;5026108;28;20716;-66
2023/03/08 01:54:48;;;;;;;7.83;7.33;;;1.70;99.90;;;;;;5028400;28;20179;-66
2023/03/08 01:57:24;;;;;;;8.03;7.53;;;1.70;99.90;;;;;;5028146;28;20237;-66
2023/03/08 01:59:52;;;;;;;8.23;7.73;;;1.70;99.90;;;;;;5027965;28;20711;-66
2023/03/08 02:02:28;;;;;;;8.83;8.13;;;1.70;99.90;;;;;;5023739;28;20210;-66
2023/03/08 02:04:54;;;;;;;7.80;7.30;;;1.70;99.90;;;;;;5030390;28;20301;-66
2023/03/08 02:07:19;;;;;;;8.07;7.67;;;1.70;99.90;;;;;;5032812;28;20262;-67
2023/03/08 02:09:46;;;;;;;8.63;8.03;;;1.70;99.90;;;;;;5027269;28;20220;-66
2023/03/08 02:12:12;;;;;;;7.83;7.33;;;1.60;99.90;;;;;;5012682;28;20175;-66
2023/03/08 02:14:42;;;;;;;9.07;8.27;;;1.60;99.90;;;;;;5015609;28;20198;-66
2023/03/08 02:17:08;;;;;;;8.40;7.90;;;1.60;99.90;;;;;;5032187;28;20210;-66
2023/03/08 02:20:05;;;;;;;8.47;7.87;;;1.60;99.90;;;;;;5029206;28;20207;-66
2023/03/08 02:22:30;;;;;;;7.67;7.27;;;1.60;99.90;;;;;;5012317;28;20190;-66
2023/03/08 02:24:56;;;;;;;9.30;8.60;;;1.50;99.90;;;;;;5021856;28;20218;-66
2023/03/08 02:27:27;;;;;;;9.40;8.80;;;1.50;99.90;;;;;;5030563;28;20201;-66
2023/03/08 02:29:53;;;;;;;9.57;8.93;;;1.50;99.90;;;;;;5021765;28;20306;-66
2023/03/08 02:32:18;;;;;;;8.63;8.23;;;1.50;99.90;;;;;;5012275;28;20180;-66
2023/03/08 02:34:44;;;;;;;8.77;8.17;;;1.50;99.90;;;;;;5012583;28;20188;-66
2023/03/08 02:37:10;;;;;;;8.50;8.03;;;1.60;99.90;;;;;;5012156;28;20188;-66
2023/03/08 02:39:35;;;;;;;7.90;7.50;;;1.50;99.90;;;;;;5018014;28;20199;-66
2023/03/08 02:42:01;;;;;;;7.53;7.10;;;1.50;99.90;;;;;;5031739;28;20183;-66
2023/03/08 02:44:26;;;;;;;9.13;8.50;;;1.50;99.90;;;;;;5029890;28;20689;-66
2023/03/08 02:46:52;;;;;;;8.37;7.87;;;1.50;99.90;;;;;;5031842;28;20179;-66
2023/03/08 02:49:18;;;;;;;7.87;7.37;;;1.60;99.90;;;;;;5013961;28;20696;-66
2023/03/08 02:51:43;;;;;;;8.37;7.87;;;1.60;99.90;;;;;;5011534;28;20184;-67
2023/03/08 02:54:09;;;;;;;8.83;8.10;;;1.60;99.90;;;;;;5027172;28;20191;-66
2023/03/08 02:56:36;;;;;;;7.50;7.10;;;1.60;99.90;;;;;;5031305;28;20190;-66
2023/03/08 02:59:03;;;;;;;7.73;7.23;;;1.60;99.90;;;;;;5017410;28;20200;-65
2023/03/08 03:01:28;;;;;;;8.77;7.97;;;1.60;99.90;;;;;;5011299;28;20180;-66
2023/03/08 03:03:54;;;;;;;8.60;7.80;;;1.60;99.90;;;;;;5023658;28;20190;-66
2023/03/08 03:06:20;;;;;;;8.90;8.20;;;1.60;99.90;;;;;;5031347;28;20672;-66
2023/03/08 03:08:47;;;;;;;8.30;7.90;;;1.60;99.90;;;;;;5020079;28;20220;-66
2023/03/08 03:11:15;;;;;;;9.03;8.27;;;1.60;99.90;;;;;;5011328;28;20184;-66
2023/03/08 03:13:41;;;;;;;8.27;7.73;;;1.60;99.90;;;;;;5020638;28;20548;-65
2023/03/08 03:16:09;;;;;;;8.20;7.70;;;1.60;99.90;;;;;;5029839;28;20183;-66
2023/03/08 03:18:34;;;;;;;10.83;8.20;;;1.60;99.90;;;;;;5022478;28;20212;-66
2023/03/08 03:21:06;;;;;;;11.53;9.30;;;1.60;99.90;;;;;;5011259;28;20234;-65
2023/03/08 03:23:31;;;;;;;8.77;8.20;;;1.60;99.90;;;;;;5023745;28;20183;-66
2023/03/08 03:26:06;;;;;;;8.43;7.90;;;1.60;99.90;;;;;;5030757;28;20207;-66
2023/03/08 03:28:32;;;;;;;8.97;8.37;;;1.50;99.90;;;;;;5018320;28;20568;-66
2023/03/08 03:30:57;;;;;;;8.23;7.70;;;1.60;99.90;;;;;;5011004;28;20183;-66
2023/03/08 03:33:23;;;;;;;8.53;8.13;;;1.60;99.90;;;;;;5021430;28;20747;-66
2023/03/08 03:35:49;;;;;;;8.13;7.57;;;1.60;99.90;;;;;;5030784;28;20263;-66
2023/03/08 03:38:14;;;;;;;8.30;7.80;;;1.60;99.90;;;;;;5029248;28;20618;-66
2023/03/08 03:40:40;;;;;;;9.27;8.67;;;1.60;99.90;;;;;;5028419;28;20250;-66
2023/03/08 03:43:05;;;;;;;8.43;7.80;;;1.60;99.90;;;;;;5022522;28;20191;-66
2023/03/08 03:45:31;;;;;;;8.43;7.80;;;1.60;99.90;;;;;;5010662;28;20299;-66
2023/03/08 03:47:56;;;;;;;8.63;8.13;;;1.50;99.90;;;;;;5016012;28;20306;-66
2023/03/08 03:50:22;;;;;;;8.50;7.93;;;1.50;99.90;;;;;;5030107;28;20190;-66
2023/03/08 03:52:48;;;;;;;7.90;7.47;;;1.50;99.90;;;;;;5025078;28;20184;-66
2023/03/08 03:55:13;;;;;;;8.27;7.77;;;1.50;99.90;;;;;;5011056;28;20207;-66
2023/03/08 03:57:39;;;;;;;9.67;8.90;;;1.50;99.90;;;;;;5012356;28;20716;-66
2023/03/08 04:00:06;;;;;;;8.30;7.73;;;1.50;99.90;;;;;;5030327;28;20610;-66
2023/03/08 04:02:31;;;;;;;8.67;7.80;;;1.50;99.90;;;;;;5028444;28;20233;-65
2023/03/08 04:04:57;;;;;;;8.00;7.60;;;1.60;99.90;;;;;;5030392;28;20219;-66
2023/03/08 04:07:22;;;;;;;9.07;8.50;;;1.50;99.90;;;;;;5028967;28;20171;-66
2023/03/08 04:09:48;;;;;;;8.40;8.00;;;1.50;99.90;;;;;;5010037;28;20216;-66
2023/03/08 04:12:14;;;;;;;8.87;7.80;;;1.50;99.90;;;;;;5010481;28;20681;-66
2023/03/08 04:14:40;;;;;;;8.43;7.90;;;1.50;99.90;;;;;;5028742;28;20215;-66
2023/03/08 04:17:06;;;;;;;8.57;8.03;;;1.50;99.90;;;;;;5030016;28;20209;-66
2023/03/08 04:19:32;;;;;;;9.33;8.70;;;1.50;99.90;;;;;;5012143;28;20741;-66
2023/03/08 04:21:57;;;;;;;10.77;9.97;;;1.50;99.90;;;;;;5010315;28;20268;-65
2023/03/08 04:24:23;;;;;;;10.00;9.03;;;1.50;99.90;;;;;;5024137;28;20569;-67
2023/03/08 04:26:48;;;;;;;10.80;9.60;;;1.50;99.90;;;;;;5029199;28;20179;-66
2023/03/08 04:29:14;;;;;;;8.93;7.93;;;1.50;99.90;;;;;;5015475;28;20662;-66
2023/03/08 04:31:40;;;;;;;11.00;9.23;;;1.50;99.90;;;;;;5009823;28;20652;-66
2023/03/08 04:34:06;;;;;;;10.27;9.47;;;1.50;99.90;;;;;;5021875;28;20191;-65
2023/03/08 04:36:32;;;;;;;20.33;9.67;;;1.40;99.90;;;;;;5029764;28;20599;-65
2023/03/08 04:38:58;;;;;;;10.63;9.73;;;1.40;99.90;;;;;;5018443;28;20203;-66
2023/03/08 04:41:24;;;;;;;10.77;9.97;;;1.40;99.90;;;;;;5009045;28;20557;-66
2023/03/08 04:43:55;;;;;;;19.67;10.80;;;1.40;99.90;;;;;;5010845;28;20276;-66
2023/03/08 04:46:24;;;;;;;10.13;9.30;;;1.40;99.90;;;;;;5009680;28;20698;-66
2023/03/08 04:48:54;;;;;;;9.70;9.00;;;1.40;99.90;;;;;;5017997;28;20268;-65
2023/03/08 04:51:21;;;;;;;9.90;9.10;;;1.40;99.90;;;;;;5029144;28;20530;-66
2023/03/08 04:53:47;;;;;;;9.70;8.80;;;1.30;99.90;;;;;;5021565;28;20669;-65
2023/03/08 04:56:15;;;;;;;10.40;9.60;;;1.30;99.90;;;;;;5009529;28;20237;-65
2023/03/08 04:58:41;;;;;;;10.30;9.43;;;1.30;99.90;;;;;;5015123;28;20207;-66
2023/03/08 05:01:14;;;;;;;10.77;9.97;;;1.30;99.90;;;;;;5029126;28;20179;-66
2023/03/08 05:03:41;;;;;;;9.57;8.73;;;1.20;99.90;;;;;;5023483;28;20635;-66
2023/03/08 05:06:07;;;;;;;11.47;10.47;;;1.20;99.90;;;;;;5009740;28;20208;-65
2023/03/08 05:08:33;;;;;;;11.60;10.23;;;1.20;99.90;;;;;;5012724;28;20207;-66
2023/03/08 05:11:00;;;;;;;12.07;11.17;;;1.10;99.90;;;;;;5028799;28;20183;-65
2023/03/08 05:13:31;;;;;;;11.40;10.37;;;1.10;99.90;;;;;;5026030;28;20285;-66
2023/03/08 05:15:57;;;;;;;10.20;9.50;;;1.10;99.90;;;;;;5008716;28;20179;-67
2023/03/08 05:18:23;;;;;;;11.50;10.37;;;1.10;99.90;;;;;;5010921;28;20204;-65
2023/03/08 05:21:04;;;;;;;11.47;9.63;;;1.20;99.90;;;;;;5028721;28;20191;-65
2023/03/08 05:23:30;;;;;;;18.33;11.67;;;1.10;99.90;;;;;;5024971;28;20592;-65
2023/03/08 05:26:01;;;;;;;10.27;9.43;;;1.10;99.90;;;;;;5009156;28;20204;-64
2023/03/08 05:28:30;;;;;;;22.90;10.90;;;1.10;99.90;;;;;;5009907;28;20223;-65
2023/03/08 05:31:03;;;;;;;10.30;9.40;;;1.10;99.90;;;;;;5028411;28;20264;-64
2023/03/08 05:33:28;;;;;;;10.60;9.77;;;1.10;99.90;;;;;;5028015;28;20175;-65
2023/03/08 05:35:54;;;;;;;11.87;10.67;;;1.10;99.90;;;;;;5028840;28;20193;-65
2023/03/08 05:38:23;;;;;;;10.80;9.90;;;1.10;99.90;;;;;;5027193;28;20229;-65
2023/03/08 05:40:49;;;;;;;9.90;9.17;;;1.10;99.90;;;;;;5028088;28;20183;-65
2023/03/08 05:43:15;;;;;;;12.87;11.50;;;1.00;99.90;;;;;;5024351;28;20640;-65
2023/03/08 05:45:41;;;;;;;9.77;8.90;;;1.00;99.90;;;;;;5008915;28;20210;-65
2023/03/08 05:48:07;;;;;;;10.23;9.40;;;1.00;99.90;;;;;;5007367;28;20579;-64
2023/03/08 05:50:33;;;;;;;10.13;9.43;;;1.00;99.90;;;;;;5008635;28;20183;-65
2023/03/08 05:52:59;;;;;;;10.67;9.60;;;1.00;99.90;;;;;;5007466;28;20180;-64
2023/03/08 05:55:25;;;;;;;10.77;9.87;;;1.00;99.90;;;;;;5040261;28;20258;-65
2023/03/08 05:57:50;;;;;;;10.87;9.87;;;1.00;99.90;;;;;;5008441;28;20180;-65
2023/03/08 06:00:16;;;;;;;10.17;9.47;;;0.90;99.90;;;;;;5008114;28;20180;-65
2023/03/08 06:02:42;;;;;;;10.07;9.17;;;0.90;99.90;;;;;;5028428;28;20210;-65
2023/03/08 06:05:08;;;;;;;9.53;8.87;;;0.90;99.90;;;;;;5028042;28;20211;-64
2023/03/08 06:07:33;;;;;;;10.37;9.40;;;0.90;99.90;;;;;;5008627;28;20187;-65
2023/03/08 06:09:59;;;;;;;10.00;9.00;;;0.90;99.90;;;;;;5008270;28;20215;-65
2023/03/08 06:12:25;;;;;;;10.20;9.40;;;0.90;99.90;;;;;;5008876;28;20184;-65
2023/03/08 06:14:50;;;;;;;14.83;9.97;;;0.90;99.90;;;;;;5008602;28;20215;-65
2023/03/08 06:17:16;;;;;;;9.70;8.90;;;0.90;99.90;;;;;;5024694;28;20572;-65
2023/03/08 06:19:41;;;;;;;9.73;8.97;;;0.80;99.90;;;;;;5027990;28;20355;-65
2023/03/08 06:22:07;;;;;;;10.17;9.30;;;0.80;99.90;;;;;;5013501;28;20241;-65
2023/03/08 06:24:32;;;;;;;9.77;8.97;;;0.80;99.90;;;;;;5008630;28;20254;-65
2023/03/08 06:26:58;;;;;;;10.20;9.27;;;0.90;99.90;;;;;;5020979;28;20190;-65
2023/03/08 06:29:24;;;;;;;11.00;9.83;;;0.90;99.90;;;;;;5027695;28;20202;-65
2023/03/08 06:31:50;;;;;;;10.90;9.97;;;0.90;99.90;;;;;;5016706;28;20284;-65
2023/03/08 06:34:16;;;;;;;10.33;9.60;;;0.90;99.90;;;;;;5008464;28;20614;-65
2023/03/08 06:36:42;;;;;;;14.33;9.00;;;0.90;99.90;;;;;;5017761;28;20214;-65
2023/03/08 06:39:08;;;;;;;10.70;9.90;;;0.90;99.90;;;;;;5028094;28;20598;-65
2023/03/08 06:41:34;;;;;;;9.13;8.53;;;0.90;99.90;;;;;;5019589;28;20557;-65
2023/03/08 06:44:00;;;;;;;9.23;8.47;;;0.90;99.90;;;;;;5008140;28;20192;-66
2023/03/08 06:46:26;;;;;;;10.93;9.73;;;0.90;99.90;;;;;;5014349;28;20179;-65
2023/03/08 06:48:52;;;;;;;10.80;9.73;;;0.90;99.90;;;;;;5027764;28;20386;-66
2023/03/08 06:51:18;;;;;;;10.60;9.60;;;0.90;99.90;;;;;;5024730;28;20688;-65
2023/03/08 06:53:45;;;;;;;10.10;9.47;;;0.90;99.90;;;;;;5011723;28;20203;-65
2023/03/08 06:56:13;;;;;;;9.77;8.83;;;0.90;99.90;;;;;;5014703;28;20287;-66
2023/03/08 06:58:38;;;;;;;11.63;9.40;;;1.00;99.90;;;;;;5031429;28;20206;-66
2023/03/08 07:01:04;;;;;;;9.83;9.13;;;1.00;99.90;;;;;;5030520;28;20184;-66
2023/03/08 07:03:31;;;;;;;9.43;8.60;;;1.00;99.90;;;;;;5030057;28;20240;-66
2023/03/08 07:06:02;;;;;;;9.70;8.90;;;1.00;99.90;;;;;;5030732;28;20249;-65
2023/03/08 07:08:28;;;;;;;8.63;8.13;;;1.00;99.90;;;;;;5012457;28;20547;-66
2023/03/08 07:10:53;;;;;;;9.00;8.27;;;1.00;99.90;;;;;;5023793;28;20657;-66
2023/03/08 07:13:20;;;;;;;10.53;9.63;;;1.00;99.90;;;;;;5026029;28;20180;-66
2023/03/08 07:15:46;;;;;;;10.17;9.13;;;1.00;99.90;;;;;;5022355;28;20179;-66
2023/03/08 07:18:12;;;;;;;9.23;8.53;;;1.00;99.90;;;;;;5011397;28;20341;-66
2023/03/08 07:20:37;;;;;;;10.37;9.37;;;1.00;99.90;;;;;;5010671;28;20278;-66
2023/03/08 07:23:03;;;;;;;10.50;9.67;;;1.10;99.90;;;;;;5022211;28;20199;-66
2023/03/08 07:25:28;;;;;;;10.70;9.73;;;1.10;99.90;;;;;;5010975;28;20296;-66
2023/03/08 07:27:54;;;;;;;11.80;10.80;;;1.10;99.90;;;;;;5031871;28;20192;-67
2023/03/08 07:30:21;;;;;;;9.73;8.17;;;1.20;99.90;;;;;;4991420;28;20208;-66
2023/03/08 07:32:46;;;;;;;12.87;9.57;;;1.20;99.90;;;;;;5022898;28;20188;-66
2023/03/08 07:35:14;;;;;;;10.93;9.93;;;1.20;99.90;;;;;;4991496;28;20184;-66
2023/03/08 07:37:43;;;;;;;10.03;9.40;;;1.20;99.90;;;;;;4997965;28;20188;-66
2023/03/08 07:40:10;;;;;;;10.87;9.90;;;1.20;99.90;;;;;;5027073;28;20301;-67
2023/03/08 07:42:36;;;;;;;15.73;10.47;;;1.20;99.90;;;;;;5029825;28;20183;-66
2023/03/08 07:45:02;;;;;;;10.90;9.90;;;1.20;99.90;;;;;;5021571;28;20211;-66
2023/03/08 07:47:28;;;;;;;11.40;9.57;;;1.20;99.90;;;;;;5021315;28;20179;-66
2023/03/08 07:49:53;;;;;;;10.00;9.30;;;1.20;99.90;;;;;;5027979;28;20714;-67
2023/03/08 07:52:19;;;;;;;10.87;9.67;;;1.30;99.90;;;;;;5028185;28;20221;-67
2023/03/08 07:54:44;;;;;;;10.10;9.17;;;1.30;99.90;;;;;;5028581;28;20195;-66
2023/03/08 07:57:13;;;;;;;10.77;9.87;;;1.20;99.90;;;;;;5012006;28;20188;-67
2023/03/08 07:59:39;;;;;;;11.43;9.67;;;1.20;99.90;;;;;;5010121;28;20268;-67
2023/03/08 08:02:05;;;;;;;10.07;9.23;;;1.30;99.90;;;;;;5024082;28;20195;-66
2023/03/08 08:04:34;;;;;;;9.97;9.17;;;1.30;99.90;;;;;;5010389;28;20210;-66
2023/03/08 08:06:59;;;;;;;10.80;10.10;;;1.30;99.90;;;;;;5012397;28;20342;-66
2023/03/08 08:09:25;;;;;;;10.57;9.97;;;1.30;99.90;;;;;;5016341;28;20322;-66
2023/03/08 08:11:50;;;;;;;10.13;9.43;;;1.40;99.90;;;;;;5009894;28;20267;-65
2023/03/08 08:14:16;;;;;;;11.23;10.43;;;1.50;99.90;;;;;;5019596;28;20552;-66
2023/03/08 08:16:41;;;;;;;13.67;10.73;;;1.60;99.90;;;;;;5014154;28;20570;-66
2023/03/08 08:19:09;;;;;;;11.57;10.37;;;1.60;99.90;;;;;;5009661;28;20681;-65
2023/03/08 08:21:35;;;;;;;11.70;10.70;;;1.60;99.90;;;;;;5009637;28;20568;-66
2023/03/08 08:24:01;;;;;;;10.50;9.67;;;1.50;99.90;;;;;;5009712;28;20192;-66
2023/03/08 08:26:26;;;;;;;11.13;10.03;;;1.60;99.90;;;;;;5010886;28;20188;-66
2023/03/08 08:28:53;;;;;;;11.43;10.43;;;1.60;99.90;;;;;;5029742;28;20196;-66
2023/03/08 08:31:22;;;;;;;10.33;9.53;;;1.70;99.90;;;;;;5016361;28;20184;-66
2023/03/08 08:33:48;;;;;;;11.30;10.10;;;1.70;99.90;;;;;;5029032;28;20198;-65
2023/03/08 08:36:19;;;;;;;15.53;12.47;;;1.70;99.90;;;;;;5018654;28;20183;-66
2023/03/08 08:38:45;;;;;;;10.47;9.67;;;1.70;99.90;;;;;;5029238;28;20230;-66
2023/03/08 08:41:14;;;;;;;11.70;10.50;;;1.80;99.90;;;;;;5026326;28;20660;-67
2023/03/08 08:43:40;;;;;;;10.87;9.87;;;1.90;99.90;;;;;;5010792;28;20238;-67
2023/03/08 08:46:06;;;;;;;11.77;10.60;;;1.90;99.90;;;;;;5024029;28;20218;-67
2023/03/08 08:48:32;;;;;;;12.80;11.70;;;2.00;99.90;;;;;;5010818;28;20200;-67
2023/03/08 08:50:58;;;;;;;10.40;9.60;;;2.00;99.90;;;;;;5014897;28;20192;-67
2023/03/08 08:53:24;;;;;;;10.77;9.83;;;2.00;99.90;;;;;;5012831;28;20180;-67
2023/03/08 08:55:50;;;;;;;10.27;9.17;;;2.00;99.90;;;;;;5021546;28;21443;-66
2023/03/08 08:58:16;;;;;;;10.63;9.83;;;2.00;99.90;;;;;;5009492;28;20661;-67
2023/03/08 09:00:42;;;;;;;10.57;9.67;;;2.10;99.90;;;;;;5009853;28;20186;-68
2023/03/08 09:03:07;;;;;;;9.00;8.20;;;2.10;99.90;;;;;;5029171;28;20237;-68
2023/03/08 09:05:36;;;;;;;42.90;13.23;;;2.20;99.90;;;;;;5029000;28;20664;-67
2023/03/08 09:08:02;;;;;;;8.93;8.27;;;2.30;99.90;;;;;;5009622;28;20188;-67
2023/03/08 09:10:31;;;;;;;11.03;9.90;;;2.30;99.90;;;;;;5008835;28;20176;-67
2023/03/08 09:12:57;;;;;;;10.70;9.60;;;2.30;99.90;;;;;;5026749;28;20641;-67
2023/03/08 09:15:24;;;;;;;10.23;9.53;;;2.40;99.90;;;;;;5028828;28;20182;-68
2023/03/08 09:17:49;;;;;;;10.37;9.53;;;2.40;99.90;;;;;;5012380;28;20187;-68
2023/03/08 09:20:16;;;;;;;9.37;8.67;;;2.40;99.90;;;;;;5009158;28;20188;-69
2023/03/08 09:22:42;;;;;;;9.73;8.77;;;2.50;99.90;;;;;;5016757;28;20187;-69
2023/03/08 09:25:09;;;;;;;9.10;8.30;;;2.50;99.90;;;;;;5028742;28;20222;-68
2023/03/08 09:27:36;;;;;;;9.93;9.03;;;2.60;99.90;;;;;;5014072;28;20195;-68
2023/03/08 09:30:02;;;;;;;10.77;9.73;;;2.70;99.90;;;;;;5008765;28;20579;-68
2023/03/08 09:32:28;;;;;;;9.60;8.80;;;2.70;99.90;;;;;;5019928;28;20187;-68
2023/03/08 09:34:53;;;;;;;9.70;8.47;;;2.80;99.90;;;;;;5028669;28;20183;-68
2023/03/08 09:37:19;;;;;;;8.60;8.03;;;2.80;99.90;;;;;;5018695;28;20195;-68
2023/03/08 09:39:45;;;;;;;9.20;8.20;;;2.80;99.90;;;;;;5008565;28;20566;-68
2023/03/08 09:42:26;;;;;;;14.30;9.50;;;2.70;99.90;;;;;;5015004;28;20204;-68
2023/03/08 09:45:16;;;;;;;9.50;8.50;;;2.80;99.90;;;;;;5028409;28;20207;-68
2023/03/08 09:47:41;;;;;;;10.27;9.33;;;2.90;99.90;;;;;;5020781;28;20634;-67
2023/03/08 09:50:20;;;;;;;9.97;9.20;;;3.10;99.90;;;;;;5008264;28;20214;-67
2023/03/08 09:53:04;;;;;;;15.20;10.53;;;3.20;99.90;;;;;;5007496;28;20207;-68
2023/03/08 09:55:33;;;;;;;10.70;9.67;;;3.30;99.90;;;;;;5016025;28;20556;-68
2023/03/08 09:58:23;;;;;;;11.20;10.10;;;3.30;99.90;;;;;;5026847;28;20206;-68
2023/03/08 10:00:49;;;;;;;11.43;10.27;;;3.30;99.90;;;;;;5021785;28;20183;-67
2023/03/08 10:03:39;;;;;;;14.17;11.67;;;3.30;99.90;;;;;;5030137;28;20179;-67
2023/03/08 10:06:18;;;;;;;12.53;11.33;;;3.40;99.90;;;;;;5026280;28;20211;-67
2023/03/08 10:09:00;;;;;;;11.70;10.90;;;3.40;99.90;;;;;;5031207;28;20818;-67
2023/03/08 10:11:48;;;;;;;11.57;10.60;;;3.40;99.90;;;;;;5013047;28;20230;-67
2023/03/08 10:14:22;;;;;;;14.07;12.77;;;3.40;99.90;;;;;;5011893;28;20266;-67
2023/03/08 10:16:56;;;;;;;14.53;13.13;;;3.50;99.90;;;;;;5023419;28;20180;-67
2023/03/08 10:19:45;;;;;;;14.17;13.00;;;3.60;99.90;;;;;;4991670;28;20223;-67
2023/03/08 10:22:26;;;;;;;12.90;11.90;;;3.70;99.90;;;;;;4990782;28;20184;-67
2023/03/08 10:24:58;;;;;;;13.10;11.97;;;3.90;99.90;;;;;;4998432;28;20622;-68
2023/03/08 10:27:31;;;;;;;17.00;12.73;;;3.90;99.90;;;;;;5035236;28;20672;-68
2023/03/08 10:29:59;;;;;;;14.87;13.37;;;3.80;99.90;;;;;;5031902;28;20253;-67
2023/03/08 10:32:27;;;;;;;13.17;12.07;;;3.70;99.90;;;;;;5013932;28;20180;-68
2023/03/08 10:34:59;;;;;;;13.83;12.77;;;3.70;99.90;;;;;;5016790;28;20176;-69
2023/03/08 10:37:32;;;;;;;12.90;11.83;;;3.70;99.90;;;;;;5027908;28;20239;-68
2023/03/08 10:40:04;;;;;;;14.47;13.23;;;3.70;99.90;;;;;;5016524;28;20192;-69
2023/03/08 10:42:30;;;;;;;15.10;13.57;;;3.80;99.90;;;;;;5034927;28;20168;-69
2023/03/08 10:44:58;;;;;;;13.93;12.73;;;3.80;99.90;;;;;;5034381;28;20926;-69
2023/03/08 10:47:29;;;;;;;13.43;12.23;;;3.90;99.90;;;;;;5015254;28;20176;-69
2023/03/08 10:50:12;;;;;;;14.67;13.23;;;3.80;99.90;;;;;;5015424;28;20200;-68
2023/03/08 10:52:38;;;;;;;13.67;12.43;;;3.90;99.90;;;;;;4995958;28;20204;-68
2023/03/08 10:55:12;;;;;;;14.43;13.17;;;3.90;99.90;;;;;;4997002;28;20750;-68
2023/03/08 10:57:40;;;;;;;13.23;12.23;;;3.90;99.90;;;;;;4995221;28;20577;-67
2023/03/08 11:00:39;;;;;;;13.43;12.27;;;4.00;99.90;;;;;;4996267;28;20204;-68
2023/03/08 11:03:19;;;;;;;13.90;12.60;;;4.10;99.90;;;;;;5033437;28;20179;-68
2023/03/08 11:05:57;;;;;;;16.00;11.70;;;4.20;99.90;;;;;;5029194;28;20222;-68
2023/03/08 11:08:27;;;;;;;12.03;10.67;;;4.30;99.90;;;;;;5029612;28;20203;-68
2023/03/08 11:11:12;;;;;;;17.23;11.57;;;4.30;99.90;;;;;;5021180;28;20271;-67
2023/03/08 11:13:45;;;;;;;12.17;11.00;;;4.40;99.90;;;;;;5015191;28;20187;-68
2023/03/08 11:16:21;;;;;;;12.70;11.50;;;4.30;99.90;;;;;;5026342;28;20695;-67
2023/03/08 11:18:54;;;;;;;11.40;10.30;;;4.30;99.90;;;;;;5026580;28;20207;-67
2023/03/08 11:21:44;;;;;;;12.60;11.27;;;4.30;99.90;;;;;;5012887;28;20183;-67
2023/03/08 11:24:31;;;;;;;12.53;11.33;;;4.30;99.90;;;;;;5024494;28;20188;-67
2023/03/08 11:27:14;;;;;;;11.70;10.57;;;4.40;99.90;;;;;;5032693;28;20195;-67
2023/03/08 11:30:10;;;;;;;11.33;10.33;;;4.30;99.90;;;;;;5019637;28;20201;-67
2023/03/08 11:32:44;;;;;;;11.63;10.53;;;4.20;99.90;;;;;;5012764;28;20192;-67
2023/03/08 11:35:12;;;;;;;13.60;12.27;;;4.10;99.90;;;;;;5029576;28;20579;-67
2023/03/08 11:37:57;;;;;;;13.20;12.00;;;4.00;99.90;;;;;;5032427;28;20187;-67
2023/03/08 11:40:50;;;;;;;16.90;12.47;;;4.10;99.90;;;;;;5014710;28;20180;-67
2023/03/08 11:43:33;;;;;;;12.33;10.23;;;4.20;99.90;;;;;;5014551;28;20187;-67
2023/03/08 11:46:26;;;;;;;14.13;11.43;;;4.40;99.90;;;;;;5033877;28;20198;-67
2023/03/08 11:49:15;;;;;;;11.20;10.20;;;4.50;99.90;;;;;;5032166;28;20203;-67
2023/03/08 11:51:57;;;;;;;14.03;10.53;;;4.70;99.90;;;;;;5033508;28;20178;-67
2023/03/08 11:54:41;;;;;;;12.77;11.03;;;4.90;99.90;;;;;;4993009;28;20275;-67
2023/03/08 11:57:10;;;;;;;11.03;10.00;;;5.00;99.90;;;;;;4994304;28;20280;-67
2023/03/08 12:00:11;;;;;;;15.63;10.83;;;4.90;99.90;;;;;;4993840;28;20203;-66
2023/03/08 12:02:43;;;;;;;13.33;10.93;;;5.00;99.90;;;;;;4994166;28;20176;-66
2023/03/08 12:05:28;;;;;;;19.60;11.83;;;5.10;99.90;;;;;;5007576;28;20265;-66
2023/03/08 12:08:12;;;;;;;17.07;12.87;;;5.20;99.90;;;;;;5013569;28;20716;-66
2023/03/08 12:11:07;;;;;;;15.90;11.33;;;5.30;99.90;;;;;;5029623;28;20278;-66
2023/03/08 12:13:51;;;;;;;13.10;11.80;;;5.30;99.90;;;;;;5033226;28;20663;-65
2023/03/08 12:16:55;;;;;;;12.00;10.27;;;5.20;99.90;;;;;;4993960;28;20212;-66
2023/03/08 12:19:44;;;;;;;12.10;10.90;;;5.30;99.90;;;;;;5003381;28;20199;-66
2023/03/08 12:22:16;;;;;;;11.90;10.73;;;5.30;99.90;;;;;;5033139;28;20210;-65
2023/03/08 12:24:56;;;;;;;11.37;9.97;;;5.30;99.90;;;;;;5025309;28;20215;-65
2023/03/08 12:27:45;;;;;;;12.40;10.60;;;5.20;99.90;;;;;;5014086;28;20172;-65
2023/03/08 12:30:25;;;;;;;12.27;10.87;;;5.30;99.90;;;;;;5013110;28;20286;-64
2023/03/08 12:32:54;;;;;;;11.27;10.10;;;5.20;99.90;;;;;;5013102;28;20176;-65
2023/03/08 12:35:37;;;;;;;12.33;11.20;;;5.10;99.90;;;;;;5024060;28;20187;-65
2023/03/08 12:38:25;;;;;;;11.87;10.67;;;4.90;99.90;;;;;;5032230;28;20187;-65
2023/03/08 12:40:55;;;;;;;12.30;11.17;;;4.80;99.90;;;;;;5031181;28;20180;-66
2023/03/08 12:43:20;;;;;;;15.20;11.33;;;4.80;99.90;;;;;;5027831;28;20190;-65
2023/03/08 12:45:47;;;;;;;12.50;11.17;;;4.80;99.90;;;;;;5012828;28;20211;-65
2023/03/08 12:48:55;;;;;;;12.77;11.40;;;4.90;99.90;;;;;;5013657;28;20596;-65
2023/03/08 12:51:31;;;;;;;12.00;10.73;;;5.00;99.90;;;;;;5031849;28;20186;-65
2023/03/08 12:54:02;;;;;;;15.50;12.63;;;5.10;99.90;;;;;;5043431;28;20646;-65
2023/03/08 12:56:49;;;;;;;14.00;12.60;;;5.10;99.90;;;;;;5012793;28;20176;-66
2023/03/08 12:59:14;;;;;;;11.97;10.97;;;5.20;99.90;;;;;;4992797;28;20287;-66
2023/03/08 13:01:58;;;;;;;12.47;11.17;;;5.20;99.90;;;;;;4993636;28;20264;-64